Domov               UVHVVR             MKGP            O straneh              
ZDRAVSTVENO VARSTVO RASTLIN
  MREŽA AGROMET. POSTAJ
 ► PROGNOSTIČNA OBVESTILA
AGROMETEOROLOŠKI PODATKI -
ARSO
OBVLADOVANJE TVEGANJ ZARADI
NEUGODNIH VREMENSKIH RAZMER
  ► NARAVNE NESREČE
  ► SUŠA/MOČA
  ► NAMAKANJE
  ► ŽLED (gozdarstvo)
KARTOGRAFSKI PRIKAZI
SPLETNE POVEZAVE
PROJEKTI IN PUBLIKACIJE

AGROMETEOROLOŠKA MREŽA: VREMENSKE POSTAJE IN FENOLOŠKA OPAZOVANJA

Pregled podatkov za lokacijo Dragonja, meteorološka postaja 42389

Pregled senzorjev na lokaciji

ID Ime Zadnja
vrednost
Datum
zadnje
spremembe
Tip
senzorja
2095 Temperatura 2 m ( °C) 13,19 °C 24.8.2017 04:00 50YA
2096 Relativna vlaga 2 m (% RH) 79,28 % RH 24.8.2017 04:00 50YA
2097 Omočenost lista (U) 0 U 24.8.2017 04:00 A730WET
2098 Padavine 0.2 mm (mm) 0 mm 24.8.2017 04:00 Rain-O-Matic

Pregled podatkov zadnjih 24 ur

Zap.
št.
Datum in čas Dragonja
Omočenost
lista
Padavine
0.2
mm
Relativna
vlaga
2
m
Temperatura
2
m
0 24.8.2017 03:00 0 0 79,28 13,19
1 24.8.2017 02:30 0 0 79,39 13,28
2 24.8.2017 02:00 0 0 78,93 13,51
3 24.8.2017 01:30 0 0 79,92 13,48
4 24.8.2017 01:00 0 0 78,9 13,79
5 24.8.2017 00:30 0 0 76,85 14,33
6 24.8.2017 00:00 0 0 74,73 14,86
7 23.8.2017 23:30 0 0 73,95 15,14
8 23.8.2017 23:00 0 0 73,27 15,45
9 23.8.2017 22:30 0 0 71,62 15,97
10 23.8.2017 22:00 0 0 68,45 16,69
11 23.8.2017 21:30 0 0 67,14 17,01
12 23.8.2017 21:00 0 0 66,21 17,34
13 23.8.2017 20:30 0 0 64,36 17,85
14 23.8.2017 20:00 0 0 62,66 18,52
15 23.8.2017 19:30 0 0 54,89 20,53
16 23.8.2017 19:00 0 0 45,47 22,99
17 23.8.2017 18:30 0 0 39,01 24,81
18 23.8.2017 18:00 0 0 35,48 25,85
19 23.8.2017 17:30 0 0 33,18 26,52
20 23.8.2017 17:00 0 0 31,83 27,69
21 23.8.2017 16:30 0 0 31,36 28,27
22 23.8.2017 16:00 0 0 31,67 28,29
23 23.8.2017 15:30 0 0 30,8 28,41
24 23.8.2017 15:00 0 0 30,48 28,5
25 23.8.2017 14:30 0 0 31 28,32
26 23.8.2017 14:00 0 0 31,85 28,09
27 23.8.2017 13:30 0 0 32,19 28,42
28 23.8.2017 13:00 0 0 32,98 28,12
29 23.8.2017 12:30 0 0 31,02 28,34
30 23.8.2017 12:00 0 0 30,1 28,31
31 23.8.2017 11:30 0 0 30,2 27,86
32 23.8.2017 11:00 0 0 30,27 27,5
33 23.8.2017 10:30 0 0 29,21 27,45
34 23.8.2017 10:00 0 0 32,81 26,63
35 23.8.2017 09:30 0 0 40,21 25,33
36 23.8.2017 09:00 0 0 42,33 25
37 23.8.2017 08:30 0 0 47,89 23,28
38 23.8.2017 08:00 0 0 57,93 19,94
39 23.8.2017 07:30 0 0 64,16 17,76
40 23.8.2017 07:00 0 0 71,43 15,36
41 23.8.2017 06:30 0 0 78,46 13,35
42 23.8.2017 06:00 0 0 84,74 11,56
43 23.8.2017 05:30 0 0 84,82 11,39
© 2011 Ministrstvo za kmetijstvo, gozdarstvo in prehrano. Vse pravice pridržane.